createdAt,value
2024-03-16T00:01:16.003Z,22.30
2024-03-16T00:04:18.180Z,22.38
2024-03-16T00:07:20.327Z,22.88
2024-03-16T00:10:22.471Z,22.00
2024-03-16T00:13:24.507Z,23.85
2024-03-16T00:16:26.537Z,22.42
2024-03-16T00:19:28.597Z,23.90
2024-03-16T00:22:30.665Z,21.58
2024-03-16T00:25:32.748Z,25.08
2024-03-16T00:28:34.898Z,23.43
2024-03-16T00:31:37.065Z,21.92
2024-03-16T00:34:39.120Z,21.42
2024-03-16T00:37:41.241Z,20.00
2024-03-16T00:40:43.357Z,19.33
2024-03-16T00:43:45.400Z,21.50
2024-03-16T00:46:47.717Z,20.25
2024-03-16T00:49:49.815Z,19.77
2024-03-16T00:52:52.255Z,22.63
2024-03-16T00:55:54.337Z,22.20
2024-03-16T00:58:56.396Z,23.30
2024-03-16T01:01:58.723Z,25.75
2024-03-16T01:05:00.920Z,27.02
2024-03-16T01:08:03.073Z,25.58
2024-03-16T01:11:07.196Z,21.92
2024-03-16T01:14:09.904Z,23.17
2024-03-16T01:17:12.166Z,24.15
2024-03-16T01:20:14.926Z,24.00
2024-03-16T01:23:18.629Z,25.67
2024-03-16T01:26:20.681Z,25.63
2024-03-16T01:29:23.250Z,25.53
2024-03-16T01:32:25.306Z,22.67
2024-03-16T01:35:27.871Z,23.83
2024-03-16T01:38:30.322Z,20.20
2024-03-16T01:41:33.109Z,20.48
2024-03-16T01:44:35.151Z,21.02
2024-03-16T01:47:38.369Z,22.23
2024-03-16T01:50:40.879Z,23.67
2024-03-16T01:53:43.235Z,26.48
2024-03-16T01:56:45.566Z,22.70
2024-03-16T01:59:47.618Z,21.90
2024-03-16T02:02:49.894Z,23.15
2024-03-16T02:05:51.950Z,22.88
2024-03-16T02:08:54.119Z,20.63
2024-03-16T02:11:56.146Z,22.55
2024-03-16T02:14:58.392Z,22.30
2024-03-16T02:18:00.537Z,23.60
2024-03-16T02:21:04.679Z,19.87
2024-03-16T02:24:06.911Z,21.23
2024-03-16T02:27:08.981Z,22.00
2024-03-16T02:30:11.622Z,20.93
2024-03-16T02:33:15.387Z,20.38
2024-03-16T02:36:17.686Z,19.52
2024-03-16T02:39:21.343Z,21.30
2024-03-16T02:42:23.426Z,21.38
2024-03-16T02:45:25.533Z,20.00
2024-03-16T02:48:27.865Z,19.95
2024-03-16T02:51:30.131Z,20.37
2024-03-16T02:54:32.245Z,20.23
2024-03-16T02:57:35.329Z,22.15
2024-03-16T03:00:37.478Z,21.50
2024-03-16T03:03:39.526Z,21.75
2024-03-16T03:06:41.939Z,21.63
2024-03-16T03:09:44.098Z,20.38
2024-03-16T03:12:46.359Z,22.33
2024-03-16T03:15:51.656Z,19.83
2024-03-16T03:18:53.875Z,16.23
2024-03-16T03:21:56.040Z,16.17
2024-03-16T03:24:58.526Z,17.17
2024-03-16T03:28:01.268Z,15.10
2024-03-16T03:31:04.098Z,15.93
2024-03-16T03:34:06.689Z,15.48
2024-03-16T03:37:09.275Z,15.40
2024-03-16T03:40:11.453Z,13.98
2024-03-16T03:43:22.825Z,15.27
2024-03-16T03:46:41.407Z,16.27
2024-03-16T03:49:51.953Z,16.77
2024-03-16T03:52:57.050Z,16.40
2024-03-16T03:56:01.223Z,16.92
2024-03-16T03:59:03.568Z,16.65
2024-03-16T04:02:05.837Z,15.23
2024-03-16T04:05:08.000Z,16.25
2024-03-16T04:08:10.512Z,14.80
2024-03-16T04:11:12.702Z,15.38
2024-03-16T04:14:14.850Z,14.90
2024-03-16T04:17:16.889Z,15.25
2024-03-16T04:20:23.105Z,14.55
2024-03-16T04:23:25.255Z,13.30
2024-03-16T04:26:27.327Z,14.63
2024-03-16T04:29:29.848Z,14.32
2024-03-16T04:32:31.947Z,14.27
2024-03-16T04:35:34.016Z,15.35
2024-03-16T04:38:36.672Z,12.90
2024-03-16T04:41:38.786Z,14.55
2024-03-16T04:44:41.351Z,15.00
2024-03-16T04:47:43.426Z,14.55
2024-03-16T04:50:46.936Z,15.90
2024-03-16T04:53:50.657Z,14.40
2024-03-16T04:56:52.667Z,17.20
2024-03-16T04:59:54.768Z,17.33
2024-03-16T05:02:56.821Z,17.23
2024-03-16T05:05:59.346Z,14.57
2024-03-16T05:09:07.578Z,15.00
2024-03-16T05:12:09.906Z,14.95
2024-03-16T05:15:12.606Z,14.15
2024-03-16T05:18:15.725Z,14.60
2024-03-16T05:21:18.051Z,15.70
2024-03-16T05:24:20.252Z,13.10
2024-03-16T05:27:22.328Z,17.33
2024-03-16T05:30:24.406Z,13.73
2024-03-16T05:33:26.492Z,15.63
2024-03-16T05:36:30.018Z,18.65
2024-03-16T05:39:33.445Z,26.65
2024-03-16T05:42:38.837Z,12.90
2024-03-16T05:45:41.264Z,17.45
2024-03-16T05:48:43.368Z,13.32
2024-03-16T05:51:45.534Z,14.65
2024-03-16T05:54:47.665Z,11.50
2024-03-16T05:57:50.238Z,13.57
2024-03-16T06:00:52.413Z,12.05
2024-03-16T06:03:54.658Z,13.40
2024-03-16T06:06:56.807Z,12.88
2024-03-16T06:09:59.038Z,11.48
2024-03-16T06:13:01.494Z,13.57
2024-03-16T06:16:04.192Z,9.77
2024-03-16T06:19:06.372Z,11.32
2024-03-16T06:22:09.115Z,10.77
2024-03-16T06:25:12.777Z,12.37
2024-03-16T06:28:18.208Z,10.77
2024-03-16T06:31:28.212Z,14.18
2024-03-16T06:34:30.292Z,14.70
2024-03-16T06:37:32.450Z,13.45
2024-03-16T06:40:34.580Z,12.30
2024-03-16T06:43:37.298Z,13.82
2024-03-16T06:46:39.425Z,13.20
2024-03-16T06:49:41.838Z,9.63
2024-03-16T06:52:43.863Z,12.63
2024-03-16T06:55:50.538Z,13.43
2024-03-16T06:58:52.710Z,12.48
2024-03-16T07:01:55.959Z,10.93
2024-03-16T07:04:58.149Z,13.30
2024-03-16T07:08:00.441Z,12.50
2024-03-16T07:11:02.787Z,14.55
2024-03-16T07:14:05.097Z,15.18
2024-03-16T07:17:07.423Z,12.60
2024-03-16T07:20:12.292Z,10.75
2024-03-16T07:23:15.212Z,12.95
2024-03-16T07:26:17.462Z,13.45
2024-03-16T07:29:19.545Z,14.05
2024-03-16T07:32:21.722Z,11.15
2024-03-16T07:35:23.826Z,13.48
2024-03-16T07:38:26.059Z,13.97
2024-03-16T07:41:28.087Z,13.13
2024-03-16T07:44:31.311Z,13.35
2024-03-16T07:47:33.442Z,13.23
2024-03-16T07:50:36.402Z,12.70
2024-03-16T07:53:38.964Z,12.25
2024-03-16T07:56:41.339Z,13.32
2024-03-16T07:59:43.546Z,13.50
2024-03-16T08:02:46.199Z,11.30
2024-03-16T08:05:48.338Z,11.02
2024-03-16T08:08:51.241Z,13.65
2024-03-16T08:11:53.432Z,11.27
2024-03-16T08:14:55.576Z,11.65
2024-03-16T08:17:58.996Z,12.27
2024-03-16T08:21:01.197Z,12.27
2024-03-16T08:24:03.312Z,13.50
2024-03-16T08:27:05.536Z,13.95
2024-03-16T08:30:07.888Z,14.15
2024-03-16T08:33:10.005Z,13.07
2024-03-16T08:36:12.121Z,12.77
2024-03-16T08:39:14.204Z,13.02
2024-03-16T08:42:16.416Z,13.32
2024-03-16T08:45:18.552Z,13.87
2024-03-16T08:48:20.882Z,13.23
2024-03-16T08:51:23.294Z,14.27
2024-03-16T08:54:25.508Z,14.80
2024-03-16T08:57:27.785Z,14.23
2024-03-16T09:00:31.147Z,14.05
2024-03-16T09:03:33.368Z,15.60
2024-03-16T09:06:39.252Z,13.77
2024-03-16T09:09:41.680Z,16.40
2024-03-16T09:12:44.456Z,13.20
2024-03-16T09:15:46.598Z,14.38
2024-03-16T09:18:48.917Z,16.92
2024-03-16T09:21:51.351Z,17.85
2024-03-16T09:24:53.436Z,16.40
2024-03-16T09:27:55.517Z,14.70
2024-03-16T09:30:57.694Z,16.30
2024-03-16T09:34:00.917Z,15.90
2024-03-16T09:37:03.125Z,19.30
2024-03-16T09:40:12.551Z,12.70
